Time;durP1;ratioP1;P1;durP2;ratioP2;P2;SDS_P1;SDS_P2;PMS_P1;PMS_P2;Temp;Humidity;BMP_temperature;BMP_pressure;BME280_temperature;BME280_humidity;BME280_pressure;Samples;Min_cycle;Max_cycle;Signal;HPM_P1;HPM_P2
2023/07/22 00:01:00;;;;;;;8.00;4.10;;;;;;;;;;6066845;23;20002;-80
2023/07/22 00:03:25;;;;;;;10.52;4.25;;;;;;;;;;6067198;23;20014;-80
2023/07/22 00:06:02;;;;;;;9.32;4.38;;;;;;;;;;6067114;23;20055;-80
2023/07/22 00:08:27;;;;;;;10.23;4.13;;;;;;;;;;6041913;23;20002;-80
2023/07/22 00:10:52;;;;;;;9.50;3.50;;;;;;;;;;6041575;23;20040;-80
2023/07/22 00:13:18;;;;;;;12.93;4.78;;;;;;;;;;6066971;23;20109;-80
2023/07/22 00:15:43;;;;;;;12.50;4.18;;;;;;;;;;6067306;23;20705;-80
2023/07/22 00:18:08;;;;;;;9.73;4.43;;;;;;;;;;6067123;23;20006;-80
2023/07/22 00:20:33;;;;;;;8.18;4.05;;;;;;;;;;6041191;23;20101;-80
2023/07/22 00:22:59;;;;;;;7.53;4.10;;;;;;;;;;6040816;23;20102;-80
2023/07/22 00:25:24;;;;;;;11.10;4.60;;;;;;;;;;6067137;23;20054;-80
2023/07/22 00:27:49;;;;;;;7.47;4.15;;;;;;;;;;6067182;23;20003;-80
2023/07/22 00:30:14;;;;;;;13.02;4.97;;;;;;;;;;6065870;23;20030;-80
2023/07/22 00:32:40;;;;;;;10.15;5.40;;;;;;;;;;6042112;23;20083;-80
2023/07/22 00:35:06;;;;;;;15.32;5.90;;;;;;;;;;6067559;23;20010;-80
2023/07/22 00:37:32;;;;;;;10.80;6.03;;;;;;;;;;6069887;23;20070;-80
2023/07/22 00:40:00;;;;;;;13.45;5.30;;;;;;;;;;6070784;23;19995;-80
2023/07/22 00:42:28;;;;;;;8.18;4.40;;;;;;;;;;6069092;23;20074;-80
2023/07/22 00:44:53;;;;;;;13.25;5.50;;;;;;;;;;6071766;23;20003;-80
2023/07/22 00:47:19;;;;;;;10.77;5.18;;;;;;;;;;6066961;23;20415;-80
2023/07/22 00:49:47;;;;;;;11.63;4.90;;;;;;;;;;6070876;23;19999;-80
2023/07/22 00:52:13;;;;;;;9.35;4.55;;;;;;;;;;6045634;23;20013;-80
2023/07/22 00:54:38;;;;;;;11.73;5.07;;;;;;;;;;6044318;23;20078;-80
2023/07/22 00:57:04;;;;;;;9.70;4.82;;;;;;;;;;6066418;23;19995;-80
2023/07/22 00:59:30;;;;;;;11.20;4.90;;;;;;;;;;6067323;23;20328;-80
2023/07/22 01:01:55;;;;;;;10.57;4.90;;;;;;;;;;6068058;23;20010;-80
2023/07/22 01:04:22;;;;;;;10.82;5.05;;;;;;;;;;6068006;23;20083;-80
2023/07/22 01:06:48;;;;;;;10.88;4.72;;;;;;;;;;6067314;23;20329;-80
2023/07/22 01:09:13;;;;;;;9.80;4.80;;;;;;;;;;6066608;23;20003;-80
2023/07/22 01:11:38;;;;;;;13.38;5.22;;;;;;;;;;6066967;23;19995;-80
2023/07/22 01:14:04;;;;;;;11.05;4.00;;;;;;;;;;6041433;23;20004;-80
2023/07/22 01:16:29;;;;;;;14.50;5.18;;;;;;;;;;6065626;23;20007;-80
2023/07/22 01:18:54;;;;;;;13.18;4.80;;;;;;;;;;6042187;23;20015;-80
2023/07/22 01:21:23;;;;;;;10.15;5.10;;;;;;;;;;6043199;23;20003;-79
2023/07/22 01:23:57;;;;;;;8.80;5.00;;;;;;;;;;6043105;23;19999;-80
2023/07/22 01:26:22;;;;;;;11.07;5.68;;;;;;;;;;6068699;23;20292;-80
2023/07/22 01:28:48;;;;;;;14.68;5.40;;;;;;;;;;6043279;23;20022;-80
2023/07/22 01:31:13;;;;;;;12.65;5.22;;;;;;;;;;6068483;23;19998;-80
2023/07/22 01:33:39;;;;;;;10.48;5.68;;;;;;;;;;6068750;23;20002;-80
2023/07/22 01:36:04;;;;;;;10.88;5.20;;;;;;;;;;6066707;23;20056;-80
2023/07/22 01:38:31;;;;;;;12.32;5.50;;;;;;;;;;6042461;23;20003;-80
2023/07/22 01:40:56;;;;;;;12.10;4.95;;;;;;;;;;6068308;23;20475;-80
2023/07/22 01:43:21;;;;;;;10.88;4.97;;;;;;;;;;6066528;23;20030;-80
2023/07/22 01:45:46;;;;;;;12.50;5.65;;;;;;;;;;6043039;23;20003;-80
2023/07/22 01:48:12;;;;;;;12.35;4.68;;;;;;;;;;6068200;23;20471;-80
2023/07/22 01:50:37;;;;;;;9.68;5.18;;;;;;;;;;6067936;23;19999;-80
2023/07/22 01:53:08;;;;;;;11.20;5.35;;;;;;;;;;6066384;23;20002;-80
2023/07/22 01:55:33;;;;;;;10.88;5.22;;;;;;;;;;6043648;23;19991;-80
2023/07/22 01:58:01;;;;;;;12.57;5.57;;;;;;;;;;6067018;23;20062;-80
2023/07/22 02:00:26;;;;;;;9.32;5.03;;;;;;;;;;6068660;23;20007;-80
2023/07/22 02:02:52;;;;;;;10.05;5.00;;;;;;;;;;6066664;23;20459;-80
2023/07/22 02:05:18;;;;;;;13.38;5.60;;;;;;;;;;6043955;23;20003;-80
2023/07/22 02:07:43;;;;;;;10.57;5.18;;;;;;;;;;6044006;23;20014;-80
2023/07/22 02:10:09;;;;;;;11.02;5.10;;;;;;;;;;6044503;23;20078;-80
2023/07/22 02:12:35;;;;;;;9.57;4.80;;;;;;;;;;6073578;23;19999;-80
2023/07/22 02:15:00;;;;;;;9.57;4.90;;;;;;;;;;6046071;23;20006;-80
2023/07/22 02:17:25;;;;;;;9.73;5.35;;;;;;;;;;6043499;23;20002;-80
2023/07/22 02:19:51;;;;;;;11.27;5.20;;;;;;;;;;6042974;23;20003;-80
2023/07/22 02:22:16;;;;;;;10.55;5.15;;;;;;;;;;6068307;23;20022;-80
2023/07/22 02:24:41;;;;;;;13.68;5.07;;;;;;;;;;6043845;23;20295;-80
2023/07/22 02:27:08;;;;;;;10.65;5.30;;;;;;;;;;6043875;23;19999;-80
2023/07/22 02:29:34;;;;;;;10.85;5.47;;;;;;;;;;6069522;23;20003;-80
2023/07/22 02:31:59;;;;;;;12.52;5.85;;;;;;;;;;6068443;23;20005;-80
2023/07/22 02:34:24;;;;;;;13.05;5.00;;;;;;;;;;6042457;23;19999;-80
2023/07/22 02:36:52;;;;;;;12.38;5.13;;;;;;;;;;6066529;23;20013;-80
2023/07/22 02:39:17;;;;;;;11.73;5.18;;;;;;;;;;6042386;23;20007;-80
2023/07/22 02:41:43;;;;;;;10.88;5.32;;;;;;;;;;6042379;23;20007;-80
2023/07/22 02:44:08;;;;;;;17.73;5.97;;;;;;;;;;6049745;23;20017;-80
2023/07/22 02:46:33;;;;;;;14.57;5.95;;;;;;;;;;6090110;23;20013;-80
2023/07/22 02:49:01;;;;;;;11.07;5.50;;;;;;;;;;6067247;23;20002;-80
2023/07/22 02:51:29;;;;;;;9.23;5.20;;;;;;;;;;6065946;23;20027;-80
2023/07/22 02:53:55;;;;;;;12.25;5.53;;;;;;;;;;6065729;23;19995;-80
2023/07/22 02:56:20;;;;;;;14.68;6.00;;;;;;;;;;6090119;23;20010;-80
2023/07/22 02:58:48;;;;;;;10.25;5.35;;;;;;;;;;6065713;23;20089;-80
2023/07/22 03:01:13;;;;;;;16.88;5.93;;;;;;;;;;6089981;23;20331;-80
2023/07/22 03:03:39;;;;;;;10.50;5.68;;;;;;;;;;6065670;23;20006;-80
2023/07/22 03:06:05;;;;;;;12.85;5.72;;;;;;;;;;6065411;23;20277;-80
2023/07/22 03:08:30;;;;;;;13.30;6.10;;;;;;;;;;6066496;23;19999;-80
2023/07/22 03:10:56;;;;;;;11.30;5.47;;;;;;;;;;6065115;23;20002;-80
2023/07/22 03:13:21;;;;;;;14.35;6.20;;;;;;;;;;6065097;23;20066;-80
2023/07/22 03:15:46;;;;;;;14.18;6.70;;;;;;;;;;6064459;23;20010;-80
2023/07/22 03:18:11;;;;;;;15.93;6.68;;;;;;;;;;6065208;23;20029;-80
2023/07/22 03:20:37;;;;;;;14.20;6.25;;;;;;;;;;6066059;23;20006;-80
2023/07/22 03:23:03;;;;;;;11.25;5.30;;;;;;;;;;6066902;23;20038;-80
2023/07/22 03:25:28;;;;;;;16.27;6.40;;;;;;;;;;6067843;23;20007;-80
2023/07/22 03:27:54;;;;;;;14.90;6.53;;;;;;;;;;6065982;23;20078;-80
2023/07/22 03:30:21;;;;;;;12.00;6.22;;;;;;;;;;6066709;23;20043;-80
2023/07/22 03:32:50;;;;;;;12.45;6.22;;;;;;;;;;6067252;23;20006;-80
2023/07/22 03:35:16;;;;;;;14.43;6.05;;;;;;;;;;6068830;23;20006;-80
2023/07/22 03:37:41;;;;;;;16.73;6.22;;;;;;;;;;6090610;23;20324;-80
2023/07/22 03:40:11;;;;;;;13.77;5.90;;;;;;;;;;6068378;23;20644;-79
2023/07/22 03:42:37;;;;;;;14.13;5.93;;;;;;;;;;6067729;23;20026;-80
2023/07/22 03:45:03;;;;;;;12.77;6.38;;;;;;;;;;6069198;23;20011;-79
2023/07/22 03:47:29;;;;;;;16.75;6.30;;;;;;;;;;6045451;23;20018;-80
2023/07/22 03:49:54;;;;;;;16.15;7.07;;;;;;;;;;6045473;23;20003;-80
2023/07/22 03:52:19;;;;;;;19.63;7.28;;;;;;;;;;6066646;23;20073;-80
2023/07/22 03:54:45;;;;;;;25.67;7.10;;;;;;;;;;6042077;23;20005;-79
2023/07/22 03:57:10;;;;;;;16.80;6.47;;;;;;;;;;6069964;23;20360;-80
2023/07/22 03:59:36;;;;;;;18.23;6.45;;;;;;;;;;6065548;23;20416;-80
2023/07/22 04:02:01;;;;;;;16.90;6.50;;;;;;;;;;6041522;23;20014;-80
2023/07/22 04:04:26;;;;;;;16.80;7.15;;;;;;;;;;6041732;23;20003;-80
2023/07/22 04:06:52;;;;;;;13.43;6.40;;;;;;;;;;6065320;23;20006;-80
2023/07/22 04:09:17;;;;;;;16.55;6.22;;;;;;;;;;6041570;23;20006;-80
2023/07/22 04:11:44;;;;;;;15.07;6.82;;;;;;;;;;6067131;23;20007;-80
2023/07/22 04:14:12;;;;;;;13.60;6.43;;;;;;;;;;6067163;23;20085;-80
2023/07/22 04:16:37;;;;;;;16.25;6.65;;;;;;;;;;6066821;23;20286;-80
2023/07/22 04:19:02;;;;;;;16.67;7.15;;;;;;;;;;6064616;23;20022;-80
2023/07/22 04:21:28;;;;;;;14.73;6.07;;;;;;;;;;6041369;23;20066;-80
2023/07/22 04:23:53;;;;;;;12.60;6.05;;;;;;;;;;6066924;23;20011;-80
2023/07/22 04:26:18;;;;;;;12.90;6.60;;;;;;;;;;6041576;23;20014;-80
2023/07/22 04:28:44;;;;;;;16.85;7.10;;;;;;;;;;6040765;23;20491;-80
2023/07/22 04:31:09;;;;;;;14.50;6.40;;;;;;;;;;6064738;23;20010;-80
2023/07/22 04:33:37;;;;;;;11.38;5.95;;;;;;;;;;6066949;23;20079;-80
2023/07/22 04:36:02;;;;;;;17.80;7.00;;;;;;;;;;6041436;23;20083;-80
2023/07/22 04:38:28;;;;;;;16.75;7.15;;;;;;;;;;6064425;23;20010;-80
2023/07/22 04:40:53;;;;;;;18.10;6.93;;;;;;;;;;6041172;23;20360;-80
2023/07/22 04:43:18;;;;;;;18.65;7.22;;;;;;;;;;6066380;23;20014;-80
2023/07/22 04:45:44;;;;;;;17.10;7.03;;;;;;;;;;6041014;23;20007;-80
2023/07/22 04:48:10;;;;;;;16.33;7.35;;;;;;;;;;6042385;23;20427;-80
2023/07/22 04:50:36;;;;;;;17.25;6.85;;;;;;;;;;6041747;23;20106;-80
2023/07/22 04:53:02;;;;;;;15.02;6.88;;;;;;;;;;6042156;23;19995;-80
2023/07/22 04:55:29;;;;;;;16.98;6.97;;;;;;;;;;6068944;23;20056;-80
2023/07/22 04:57:55;;;;;;;19.27;7.30;;;;;;;;;;6070154;23;20373;-80
2023/07/22 05:00:20;;;;;;;17.65;7.28;;;;;;;;;;6070507;23;20089;-80
2023/07/22 05:02:49;;;;;;;23.20;8.20;;;;;;;;;;6044529;23;20011;-80
2023/07/22 05:05:15;;;;;;;16.27;7.38;;;;;;;;;;6046618;23;20649;-80
2023/07/22 05:07:48;;;;;;;16.13;6.53;;;;;;;;;;6045051;23;20369;-80
2023/07/22 05:10:14;;;;;;;17.65;8.07;;;;;;;;;;6045587;23;20011;-80
2023/07/22 05:12:39;;;;;;;14.25;6.90;;;;;;;;;;6071937;23;20026;-80
2023/07/22 05:15:05;;;;;;;25.55;8.30;;;;;;;;;;6070867;23;20416;-80
2023/07/22 05:17:31;;;;;;;18.58;6.65;;;;;;;;;;6043453;23;20363;-80
2023/07/22 05:19:57;;;;;;;16.85;6.40;;;;;;;;;;6043188;23;20007;-80
2023/07/22 05:22:22;;;;;;;24.52;7.55;;;;;;;;;;6070492;23;19991;-80
2023/07/22 05:24:47;;;;;;;17.13;7.72;;;;;;;;;;6045301;23;19999;-80
2023/07/22 05:27:13;;;;;;;19.45;7.05;;;;;;;;;;6068546;23;20369;-80
2023/07/22 05:29:38;;;;;;;14.82;6.88;;;;;;;;;;6068460;23;20081;-80
2023/07/22 05:32:04;;;;;;;16.30;7.40;;;;;;;;;;6067029;23;20067;-80
2023/07/22 05:34:29;;;;;;;20.20;7.40;;;;;;;;;;6067869;23;20046;-80
2023/07/22 05:36:54;;;;;;;16.80;7.40;;;;;;;;;;6066895;23;20058;-80
2023/07/22 05:39:19;;;;;;;22.17;7.03;;;;;;;;;;6043413;23;20365;-80
2023/07/22 05:41:45;;;;;;;15.30;6.80;;;;;;;;;;6066271;23;20002;-80
2023/07/22 05:44:10;;;;;;;17.00;7.32;;;;;;;;;;6050288;23;20032;-80
2023/07/22 05:46:35;;;;;;;21.00;7.60;;;;;;;;;;6066769;23;20011;-80
2023/07/22 05:49:00;;;;;;;17.20;7.00;;;;;;;;;;6090627;23;20467;-80
2023/07/22 05:51:26;;;;;;;15.88;6.50;;;;;;;;;;6066259;23;20034;-80
2023/07/22 05:53:51;;;;;;;18.80;7.38;;;;;;;;;;6068454;23;19999;-80
2023/07/22 05:56:16;;;;;;;16.23;7.03;;;;;;;;;;6090587;23;20037;-80
2023/07/22 05:58:41;;;;;;;15.20;6.82;;;;;;;;;;6090488;23;20006;-80
2023/07/22 06:01:07;;;;;;;17.13;6.88;;;;;;;;;;6068143;23;20096;-80
2023/07/22 06:03:32;;;;;;;20.58;7.47;;;;;;;;;;6066214;23;20003;-80
2023/07/22 06:05:58;;;;;;;22.65;7.97;;;;;;;;;;6066734;23;20062;-80
2023/07/22 06:08:23;;;;;;;16.90;6.88;;;;;;;;;;6066392;23;20054;-80
2023/07/22 06:10:48;;;;;;;24.40;7.25;;;;;;;;;;6066278;23;20003;-80
2023/07/22 06:13:13;;;;;;;15.95;6.85;;;;;;;;;;6065286;23;20082;-80
2023/07/22 06:15:39;;;;;;;15.75;7.63;;;;;;;;;;6068367;23;20398;-80
2023/07/22 06:18:13;;;;;;;20.27;7.22;;;;;;;;;;6090584;23;20010;-80
2023/07/22 06:20:39;;;;;;;14.38;6.30;;;;;;;;;;6066853;23;20432;-80
2023/07/22 06:23:07;;;;;;;15.15;6.88;;;;;;;;;;6067948;23;20063;-80
2023/07/22 06:25:32;;;;;;;22.20;7.28;;;;;;;;;;6066747;23;20090;-80
2023/07/22 06:27:58;;;;;;;16.30;7.32;;;;;;;;;;6071239;23;20002;-80
2023/07/22 06:30:23;;;;;;;18.33;7.15;;;;;;;;;;6091433;23;20006;-80
2023/07/22 06:32:51;;;;;;;19.27;7.20;;;;;;;;;;6068571;23;20118;-80
2023/07/22 06:35:17;;;;;;;19.67;8.05;;;;;;;;;;6092992;23;20027;-80
2023/07/22 06:37:53;;;;;;;17.13;6.78;;;;;;;;;;6098800;23;20006;-80
2023/07/22 06:40:18;;;;;;;16.77;6.68;;;;;;;;;;6066654;23;20327;-80
2023/07/22 06:42:44;;;;;;;13.98;6.90;;;;;;;;;;6070348;23;20013;-79
2023/07/22 06:45:09;;;;;;;17.23;6.57;;;;;;;;;;6070136;23;20003;-80
2023/07/22 06:47:36;;;;;;;19.38;6.88;;;;;;;;;;6066510;23;20443;-80
2023/07/22 06:50:02;;;;;;;15.77;5.30;;;;;;;;;;6041944;23;20389;-79
2023/07/22 06:52:28;;;;;;;21.70;6.28;;;;;;;;;;6041760;23;20029;-80
2023/07/22 06:54:53;;;;;;;17.48;6.47;;;;;;;;;;6066960;23;20026;-80
2023/07/22 06:57:18;;;;;;;20.58;5.95;;;;;;;;;;6066908;23;20014;-80
2023/07/22 06:59:43;;;;;;;13.63;7.22;;;;;;;;;;6067140;23;20073;-80
2023/07/22 07:02:09;;;;;;;16.30;5.78;;;;;;;;;;6066703;23;20419;-81
2023/07/22 07:04:35;;;;;;;13.05;5.60;;;;;;;;;;6065294;23;20093;-80
2023/07/22 07:07:00;;;;;;;14.35;5.85;;;;;;;;;;6040636;23;20034;-80
2023/07/22 07:09:25;;;;;;;15.60;5.75;;;;;;;;;;6065126;23;20002;-80
2023/07/22 07:11:51;;;;;;;15.68;5.40;;;;;;;;;;6040097;23;19995;-80
2023/07/22 07:14:17;;;;;;;13.57;5.72;;;;;;;;;;6039401;23;20054;-80
2023/07/22 07:16:43;;;;;;;15.23;5.50;;;;;;;;;;6038051;23;20026;-80
2023/07/22 07:19:08;;;;;;;17.15;6.25;;;;;;;;;;6040900;23;20051;-80
2023/07/22 07:21:33;;;;;;;18.85;5.18;;;;;;;;;;6066698;23;20030;-80
2023/07/22 07:23:59;;;;;;;13.77;5.43;;;;;;;;;;6066754;23;20014;-80
2023/07/22 07:26:24;;;;;;;12.80;4.32;;;;;;;;;;6041228;23;20003;-80
2023/07/22 07:28:50;;;;;;;10.35;4.38;;;;;;;;;;6066584;23;19995;-80
2023/07/22 07:31:16;;;;;;;12.57;4.45;;;;;;;;;;6064182;23;20501;-80
2023/07/22 07:33:41;;;;;;;10.98;4.35;;;;;;;;;;6065406;23;20062;-82
2023/07/22 07:36:07;;;;;;;8.82;3.65;;;;;;;;;;6065410;23;20626;-82
2023/07/22 07:38:32;;;;;;;15.35;4.93;;;;;;;;;;6067331;23;20003;-81
2023/07/22 07:41:01;;;;;;;15.05;4.53;;;;;;;;;;6041316;23;20377;-81
2023/07/22 07:43:29;;;;;;;10.00;3.63;;;;;;;;;;6068825;23;20114;-81
2023/07/22 07:46:30;;;;;;;12.02;4.30;;;;;;;;;;6067320;23;20030;-82
2023/07/22 07:48:56;;;;;;;11.60;4.35;;;;;;;;;;5920892;24;20106;-81
2023/07/22 07:51:28;;;;;;;8.65;3.78;;;;;;;;;;6038044;23;20003;-81
2023/07/22 07:53:54;;;;;;;13.82;4.38;;;;;;;;;;6069751;23;19999;-81
2023/07/22 07:56:20;;;;;;;11.25;4.63;;;;;;;;;;6068975;23;20085;-81
2023/07/22 07:58:46;;;;;;;13.93;3.58;;;;;;;;;;6066410;23;20262;-81
2023/07/22 08:01:11;;;;;;;14.05;4.72;;;;;;;;;;6041479;23;20339;-81
2023/07/22 08:03:37;;;;;;;9.48;3.80;;;;;;;;;;6066023;23;20041;-82
2023/07/22 08:06:03;;;;;;;11.30;3.92;;;;;;;;;;6068573;23;20053;-82
2023/07/22 08:08:28;;;;;;;15.25;4.60;;;;;;;;;;6065903;23;20193;-82
2023/07/22 08:10:58;;;;;;;4.70;1.95;;;;;;;;;;6066567;23;20029;-82
2023/07/22 08:13:27;;;;;;;15.80;3.72;;;;;;;;;;6043435;23;19999;-81
2023/07/22 08:15:56;;;;;;;12.48;2.72;;;;;;;;;;6067533;23;20009;-81
2023/07/22 08:18:21;;;;;;;8.13;2.60;;;;;;;;;;6067646;23;20332;-81
2023/07/22 08:20:47;;;;;;;5.35;2.60;;;;;;;;;;6068039;23;20022;-81
2023/07/22 08:23:18;;;;;;;8.93;2.80;;;;;;;;;;6066215;23;19999;-81
2023/07/22 08:25:43;;;;;;;10.27;4.45;;;;;;;;;;6066559;23;20017;-80
2023/07/22 08:28:08;;;;;;;9.30;3.70;;;;;;;;;;6040305;23;20491;-82
2023/07/22 08:30:34;;;;;;;9.27;3.67;;;;;;;;;;6040579;23;20086;-82
2023/07/22 08:32:59;;;;;;;12.00;3.70;;;;;;;;;;6067038;23;20007;-81
2023/07/22 08:35:24;;;;;;;12.93;3.33;;;;;;;;;;6067062;23;20080;-81
2023/07/22 08:37:50;;;;;;;15.05;3.67;;;;;;;;;;6063975;23;20123;-80
2023/07/22 08:40:15;;;;;;;14.60;4.13;;;;;;;;;;6040713;23;20604;-80
2023/07/22 08:42:41;;;;;;;13.40;3.80;;;;;;;;;;6041275;23;20003;-81
2023/07/22 08:45:09;;;;;;;6.43;2.67;;;;;;;;;;6059806;23;20077;-81
2023/07/22 08:47:35;;;;;;;7.18;3.10;;;;;;;;;;6063583;23;20006;-80
2023/07/22 08:50:04;;;;;;;7.38;2.63;;;;;;;;;;6065075;23;20114;-81
2023/07/22 08:52:29;;;;;;;12.10;3.00;;;;;;;;;;6065042;23;20056;-81
2023/07/22 08:54:55;;;;;;;9.57;2.78;;;;;;;;;;6088987;23;20078;-80
2023/07/22 08:57:20;;;;;;;8.60;2.42;;;;;;;;;;6064513;23;19999;-80
2023/07/22 08:59:46;;;;;;;6.07;2.53;;;;;;;;;;6063162;23;20147;-80
2023/07/22 09:02:14;;;;;;;9.60;2.90;;;;;;;;;;6065760;23;20029;-82
2023/07/22 09:04:42;;;;;;;13.07;1.58;;;;;;;;;;6065285;23;20309;-82
2023/07/22 09:07:08;;;;;;;7.45;2.80;;;;;;;;;;6065106;23;20146;-82
2023/07/22 09:09:34;;;;;;;7.07;2.70;;;;;;;;;;6089420;23;20439;-81
2023/07/22 09:11:59;;;;;;;5.60;2.60;;;;;;;;;;6064870;23;20007;-81
2023/07/22 09:14:25;;;;;;;5.57;2.72;;;;;;;;;;6067343;23;20415;-82
2023/07/22 09:16:50;;;;;;;7.40;2.95;;;;;;;;;;6089472;23;20015;-83
2023/07/22 09:19:16;;;;;;;8.02;3.03;;;;;;;;;;6090078;23;20017;-83
2023/07/22 09:21:42;;;;;;;6.95;2.92;;;;;;;;;;6067479;23;20018;-82
2023/07/22 09:24:23;;;;;;;8.60;2.03;;;;;;;;;;6068002;23;20053;-83
2023/07/22 09:26:51;;;;;;;11.20;2.42;;;;;;;;;;6066375;23;20026;-81
2023/07/22 09:29:17;;;;;;;7.50;2.03;;;;;;;;;;6065805;23;20006;-82
2023/07/22 09:31:52;;;;;;;5.85;2.05;;;;;;;;;;6066835;23;20002;-82
2023/07/22 09:34:17;;;;;;;7.68;2.45;;;;;;;;;;6067587;23;20393;-82
2023/07/22 09:36:53;;;;;;;5.30;2.10;;;;;;;;;;6064995;23;20094;-81
2023/07/22 09:39:18;;;;;;;4.85;2.13;;;;;;;;;;6064511;23;19999;-81
2023/07/22 09:41:47;;;;;;;6.90;1.95;;;;;;;;;;6065339;23;20067;-81
2023/07/22 09:44:18;;;;;;;7.32;1.52;;;;;;;;;;6067108;23;20408;-82
2023/07/22 09:46:47;;;;;;;3.92;1.70;;;;;;;;;;6067225;23;20006;-81
2023/07/22 09:49:13;;;;;;;1.98;0.57;;;;;;;;;;6066750;23;20082;-82
2023/07/22 09:51:39;;;;;;;3.80;1.55;;;;;;;;;;6068097;23;20313;-82
2023/07/22 09:54:05;;;;;;;1.92;1.25;;;;;;;;;;6066838;23;20026;-82
2023/07/22 09:56:31;;;;;;;3.63;1.58;;;;;;;;;;6067031;23;20436;-82
2023/07/22 09:58:59;;;;;;;1.65;0.63;;;;;;;;;;6066940;23;20114;-82
2023/07/22 10:01:25;;;;;;;2.63;1.30;;;;;;;;;;6091021;23;19999;-83
2023/07/22 10:03:54;;;;;;;4.07;0.93;;;;;;;;;;6068382;23;20010;-82
2023/07/22 10:06:23;;;;;;;4.40;1.88;;;;;;;;;;6067023;23;20074;-82
2023/07/22 10:08:48;;;;;;;4.18;1.50;;;;;;;;;;6067044;23;20014;-82
2023/07/22 10:11:14;;;;;;;2.20;1.00;;;;;;;;;;6068684;23;20296;-82
2023/07/22 10:13:39;;;;;;;3.65;1.23;;;;;;;;;;6091365;23;20065;-83
2023/07/22 10:16:05;;;;;;;7.20;1.80;;;;;;;;;;6068626;23;19994;-82
2023/07/22 10:18:31;;;;;;;4.47;1.55;;;;;;;;;;6066820;23;20014;-82
2023/07/22 10:20:57;;;;;;;2.13;1.10;;;;;;;;;;6066731;23;20443;-83
2023/07/22 10:23:23;;;;;;;3.85;1.27;;;;;;;;;;6068209;23;19999;-82
2023/07/22 10:25:49;;;;;;;3.17;1.00;;;;;;;;;;6068057;23;20006;-82
2023/07/22 10:28:14;;;;;;;6.07;1.60;;;;;;;;;;6090623;23;20014;-83
2023/07/22 10:30:40;;;;;;;3.78;1.30;;;;;;;;;;6089979;23;20011;-82
2023/07/22 10:33:05;;;;;;;5.97;1.23;;;;;;;;;;6090392;23;19999;-82
2023/07/22 10:35:30;;;;;;;3.90;1.20;;;;;;;;;;6066121;23;20605;-83
2023/07/22 10:37:56;;;;;;;4.40;1.50;;;;;;;;;;6066716;23;20006;-83
2023/07/22 10:40:24;;;;;;;4.80;0.88;;;;;;;;;;6068261;23;20006;-83
2023/07/22 10:42:54;;;;;;;1.27;0.80;;;;;;;;;;6066628;23;20082;-83
2023/07/22 10:45:30;;;;;;;2.47;1.15;;;;;;;;;;6066172;23;20025;-82
2023/07/22 10:48:12;;;;;;;2.08;1.20;;;;;;;;;;6065973;23;20340;-83
2023/07/22 10:50:47;;;;;;;3.70;1.20;;;;;;;;;;6090030;23;20299;-83
2023/07/22 10:53:25;;;;;;;4.95;2.03;;;;;;;;;;6066338;23;20054;-83
2023/07/22 10:56:07;;;;;;;2.55;1.17;;;;;;;;;;6068432;23;20273;-83
2023/07/22 10:58:32;;;;;;;2.08;1.25;;;;;;;;;;6090486;23;20344;-83
2023/07/22 11:01:24;;;;;;;1.38;0.93;;;;;;;;;;6067823;23;20447;-83
2023/07/22 11:04:10;;;;;;;2.87;1.50;;;;;;;;;;6064237;23;20017;-83
2023/07/22 11:06:36;;;;;;;6.30;1.60;;;;;;;;;;6066672;23;20508;-83
2023/07/22 11:09:03;;;;;;;3.05;1.40;;;;;;;;;;6066383;23;20356;-83
2023/07/22 11:11:38;;;;;;;4.93;1.33;;;;;;;;;;6068286;23;20300;-83
2023/07/22 11:14:22;;;;;;;4.57;1.88;;;;;;;;;;6066329;23;20086;-83
2023/07/22 11:16:47;;;;;;;4.95;1.50;;;;;;;;;;6067940;23;20001;-83
2023/07/22 11:19:16;;;;;;;2.00;1.20;;;;;;;;;;6066311;23;20031;-83
2023/07/22 11:21:46;;;;;;;5.15;1.63;;;;;;;;;;6067960;23;20365;-83
2023/07/22 11:24:11;;;;;;;3.08;1.35;;;;;;;;;;6068155;23;20078;-83
2023/07/22 11:26:37;;;;;;;3.15;1.10;;;;;;;;;;6066464;23;20006;-83
2023/07/22 11:29:06;;;;;;;4.07;1.80;;;;;;;;;;6065679;23;20003;-82
2023/07/22 11:31:32;;;;;;;4.55;1.55;;;;;;;;;;6067501;23;19995;-83
2023/07/22 11:33:57;;;;;;;4.50;1.40;;;;;;;;;;6066167;23;20009;-82
2023/07/22 11:36:22;;;;;;;1.83;0.90;;;;;;;;;;6066189;23;19999;-82
2023/07/22 11:38:48;;;;;;;1.73;0.90;;;;;;;;;;6065562;23;20304;-82
2023/07/22 11:41:14;;;;;;;1.67;1.23;;;;;;;;;;6065917;23;20373;-82
2023/07/22 11:43:39;;;;;;;2.85;1.15;;;;;;;;;;6066083;23;20017;-83
2023/07/22 11:46:05;;;;;;;2.97;1.33;;;;;;;;;;6090103;23;20006;-82
2023/07/22 11:48:31;;;;;;;3.35;1.20;;;;;;;;;;6065944;23;20331;-82
2023/07/22 11:50:59;;;;;;;4.70;1.20;;;;;;;;;;6065707;23;20085;-82
2023/07/22 11:53:28;;;;;;;5.20;1.58;;;;;;;;;;6067594;23;20053;-82
2023/07/22 11:55:54;;;;;;;3.30;1.10;;;;;;;;;;6066049;23;20006;-82
2023/07/22 11:58:26;;;;;;;2.63;1.10;;;;;;;;;;6065982;23;20002;-82
2023/07/22 12:01:08;;;;;;;1.70;1.08;;;;;;;;;;6067600;23;20483;-82
2023/07/22 12:03:33;;;;;;;2.30;1.05;;;;;;;;;;6067595;23;20400;-82
2023/07/22 12:06:03;;;;;;;4.13;1.10;;;;;;;;;;6067739;23;19999;-82
2023/07/22 12:08:28;;;;;;;3.65;0.75;;;;;;;;;;6065857;23;20010;-82
2023/07/22 12:11:00;;;;;;;2.05;1.00;;;;;;;;;;6065737;23;20010;-83
2023/07/22 12:13:25;;;;;;;7.65;1.30;;;;;;;;;;6065671;23;19999;-83
2023/07/22 12:16:07;;;;;;;1.20;0.80;;;;;;;;;;6067882;23;19995;-82
2023/07/22 12:18:45;;;;;;;1.77;1.15;;;;;;;;;;6067408;23;20000;-83
2023/07/22 12:21:10;;;;;;;1.77;0.90;;;;;;;;;;6066126;23;20056;-82
2023/07/22 12:23:36;;;;;;;2.03;1.05;;;;;;;;;;6065823;23;20688;-82
2023/07/22 12:26:02;;;;;;;1.65;1.00;;;;;;;;;;6067728;23;20399;-82
2023/07/22 12:28:27;;;;;;;3.17;1.73;;;;;;;;;;6065860;23;20003;-82
2023/07/22 12:30:52;;;;;;;2.53;1.20;;;;;;;;;;6065733;23;20026;-83
2023/07/22 12:33:21;;;;;;;1.75;1.02;;;;;;;;;;6068274;23;19998;-82
2023/07/22 12:35:46;;;;;;;2.55;1.20;;;;;;;;;;6071370;23;20325;-82
2023/07/22 12:38:11;;;;;;;2.47;1.30;;;;;;;;;;6067521;23;20058;-82
2023/07/22 12:40:38;;;;;;;3.65;1.27;;;;;;;;;;6065847;23;20002;-83
2023/07/22 12:43:03;;;;;;;3.22;1.42;;;;;;;;;;6065327;23;20332;-83
2023/07/22 12:45:29;;;;;;;3.70;1.50;;;;;;;;;;6065602;23;20010;-82
2023/07/22 12:47:54;;;;;;;4.25;1.13;;;;;;;;;;6067466;23;19998;-82
2023/07/22 12:50:20;;;;;;;3.08;1.48;;;;;;;;;;6065608;23;20014;-82
2023/07/22 12:52:45;;;;;;;3.42;1.20;;;;;;;;;;6065759;23;20007;-82
2023/07/22 12:55:10;;;;;;;3.55;1.27;;;;;;;;;;6065479;23;20010;-83
2023/07/22 12:57:38;;;;;;;2.95;1.45;;;;;;;;;;6067209;23;20050;-82
2023/07/22 13:00:09;;;;;;;3.97;1.10;;;;;;;;;;6067123;23;20030;-82
2023/07/22 13:02:35;;;;;;;3.70;1.70;;;;;;;;;;6089629;23;20090;-82
2023/07/22 13:05:00;;;;;;;4.00;1.33;;;;;;;;;;6067142;23;20026;-83
2023/07/22 13:07:25;;;;;;;4.25;1.25;;;;;;;;;;6065550;23;20088;-82
2023/07/22 13:09:53;;;;;;;2.50;1.13;;;;;;;;;;6089451;23;20082;-82
2023/07/22 13:12:18;;;;;;;3.40;1.35;;;;;;;;;;6065336;23;20305;-82
2023/07/22 13:14:43;;;;;;;1.70;1.20;;;;;;;;;;6066389;23;20022;-83
2023/07/22 13:17:09;;;;;;;2.72;1.38;;;;;;;;;;6090796;23;20037;-82
2023/07/22 13:19:34;;;;;;;4.43;1.30;;;;;;;;;;6067088;23;20007;-82
2023/07/22 13:21:59;;;;;;;3.40;1.40;;;;;;;;;;6067231;23;20002;-83
2023/07/22 13:24:24;;;;;;;4.47;1.40;;;;;;;;;;6091288;23;20057;-83
2023/07/22 13:26:52;;;;;;;2.00;1.20;;;;;;;;;;6068889;23;20030;-82
2023/07/22 13:29:17;;;;;;;1.90;1.10;;;;;;;;;;6067055;23;20335;-83
2023/07/22 13:31:42;;;;;;;1.83;1.23;;;;;;;;;;6068448;23;20003;-82
2023/07/22 13:34:07;;;;;;;4.05;1.02;;;;;;;;;;6067283;23;19999;-82
2023/07/22 13:36:33;;;;;;;2.30;1.20;;;;;;;;;;6067269;23;20328;-82
2023/07/22 13:38:58;;;;;;;2.63;1.40;;;;;;;;;;6066729;23;20006;-83
2023/07/22 13:41:23;;;;;;;1.48;1.00;;;;;;;;;;6068883;23;20009;-83
2023/07/22 13:43:51;;;;;;;2.33;1.60;;;;;;;;;;6090530;23;20026;-83
2023/07/22 13:46:16;;;;;;;5.35;1.33;;;;;;;;;;6067253;23;20007;-83
2023/07/22 13:48:41;;;;;;;2.20;1.33;;;;;;;;;;6067075;23;20094;-83
2023/07/22 13:51:09;;;;;;;3.72;1.30;;;;;;;;;;6067197;23;20006;-82
2023/07/22 13:53:34;;;;;;;4.45;1.40;;;;;;;;;;6067164;23;20383;-82
2023/07/22 13:56:03;;;;;;;2.33;1.10;;;;;;;;;;6067367;23;20067;-82
2023/07/22 13:58:28;;;;;;;2.72;1.23;;;;;;;;;;6068841;23;20438;-83
2023/07/22 14:00:53;;;;;;;6.93;1.58;;;;;;;;;;6068751;23;20003;-83
2023/07/22 14:03:19;;;;;;;3.28;1.38;;;;;;;;;;6069094;23;20079;-82
2023/07/22 14:05:44;;;;;;;3.10;1.33;;;;;;;;;;6069114;23;20010;-83
2023/07/22 14:08:09;;;;;;;2.58;1.17;;;;;;;;;;6092190;23;20426;-83
2023/07/22 14:10:35;;;;;;;2.20;1.13;;;;;;;;;;6069027;23;20081;-82
2023/07/22 14:13:00;;;;;;;3.88;1.30;;;;;;;;;;6068588;23;19999;-82
2023/07/22 14:15:33;;;;;;;2.05;1.20;;;;;;;;;;6091165;23;20003;-82
2023/07/22 14:17:58;;;;;;;1.95;1.00;;;;;;;;;;6067042;23;20026;-82
2023/07/22 14:20:23;;;;;;;2.50;1.20;;;;;;;;;;6068796;23;20297;-82
2023/07/22 14:22:52;;;;;;;2.63;1.20;;;;;;;;;;6066794;23;20002;-82
2023/07/22 14:25:18;;;;;;;2.13;1.10;;;;;;;;;;6066070;23;20003;-83
2023/07/22 14:27:44;;;;;;;3.20;0.77;;;;;;;;;;6066613;23;20007;-82
2023/07/22 14:30:09;;;;;;;4.85;1.15;;;;;;;;;;6066711;23;20006;-82
2023/07/22 14:32:35;;;;;;;3.35;1.00;;;;;;;;;;6068073;23;19999;-82